Time;durP1;ratioP1;P1;durP2;ratioP2;P2;SDS_P1;SDS_P2;PMS_P1;PMS_P2;Temp;Humidity;BMP_temperature;BMP_pressure;BME280_temperature;BME280_humidity;BME280_pressure;Samples;Min_cycle;Max_cycle;Signal;HPM_P1;HPM_P2
2022/09/16 00:02:03;;;;;;;7.95;1.50;;;11.70;99.90;;;;;;4879681;29;20048;-63
2022/09/16 00:04:29;;;;;;;6.60;1.38;;;11.70;99.90;;;;;;4878903;29;20067;-62
2022/09/16 00:06:55;;;;;;;6.65;1.70;;;11.70;99.90;;;;;;4876915;29;20147;-62
2022/09/16 00:09:21;;;;;;;8.02;1.38;;;11.70;99.90;;;;;;4891554;29;20063;-61
2022/09/16 00:11:46;;;;;;;7.90;1.20;;;11.70;99.90;;;;;;4878491;29;20045;-61
2022/09/16 00:14:12;;;;;;;6.53;1.20;;;11.70;99.90;;;;;;4877197;29;20056;-61
2022/09/16 00:16:38;;;;;;;8.10;1.33;;;11.70;99.90;;;;;;4895313;29;20052;-61
2022/09/16 00:19:04;;;;;;;10.07;1.50;;;11.70;99.90;;;;;;4880412;29;20512;-61
2022/09/16 00:21:30;;;;;;;5.65;1.15;;;11.70;99.90;;;;;;4880043;29;20049;-61
2022/09/16 00:23:56;;;;;;;8.65;1.20;;;11.70;99.90;;;;;;4881371;29;20049;-61
2022/09/16 00:26:22;;;;;;;4.28;1.30;;;11.70;99.90;;;;;;4871959;29;20080;-61
2022/09/16 00:28:49;;;;;;;6.60;1.23;;;11.70;99.90;;;;;;4870849;29;20052;-61
2022/09/16 00:31:16;;;;;;;6.32;0.90;;;11.70;99.90;;;;;;4871959;29;20041;-60
2022/09/16 00:33:41;;;;;;;6.30;1.40;;;11.70;99.90;;;;;;4868969;29;20041;-61
2022/09/16 00:36:13;;;;;;;3.78;1.00;;;11.70;99.90;;;;;;4870831;29;20056;-60
2022/09/16 00:38:39;;;;;;;7.07;1.48;;;11.70;99.90;;;;;;4869982;29;20135;-62
2022/09/16 00:41:06;;;;;;;4.45;0.95;;;11.70;99.90;;;;;;4872050;29;20495;-62
2022/09/16 00:43:47;;;;;;;4.80;1.27;;;11.70;99.90;;;;;;4870083;29;20079;-61
2022/09/16 00:46:14;;;;;;;7.10;1.05;;;11.70;99.90;;;;;;4869193;29;20049;-60
2022/09/16 00:48:40;;;;;;;7.88;1.20;;;11.70;99.90;;;;;;4866926;29;20071;-61
2022/09/16 00:51:08;;;;;;;5.45;1.23;;;11.70;99.90;;;;;;4865763;29;20053;-62
2022/09/16 00:53:41;;;;;;;4.18;1.25;;;11.70;99.90;;;;;;4870394;29;20318;-62
2022/09/16 00:56:08;;;;;;;;;;;11.70;99.90;;;;;;4868628;29;20066;-62
2022/09/16 00:59:00;;;;;;;7.00;1.40;;;11.60;99.90;;;;;;4866066;29;19986;-62
2022/09/16 01:01:27;;;;;;;7.17;1.20;;;11.60;99.90;;;;;;4866418;29;20047;-61
2022/09/16 01:03:58;;;;;;;6.40;1.02;;;11.60;99.90;;;;;;4864911;29;20055;-61
2022/09/16 01:06:25;;;;;;;3.55;0.90;;;11.60;99.90;;;;;;4864901;29;20069;-61
2022/09/16 01:08:51;;;;;;;5.03;1.10;;;11.60;99.90;;;;;;4864937;29;20052;-62
2022/09/16 01:11:17;;;;;;;8.27;1.15;;;11.50;99.90;;;;;;4869514;29;20148;-62
2022/09/16 01:13:44;;;;;;;4.70;0.80;;;11.50;99.90;;;;;;4867648;29;20077;-62
2022/09/16 01:16:37;;;;;;;6.60;1.17;;;11.50;99.90;;;;;;4866812;29;20256;-62
2022/09/16 01:19:09;;;;;;;7.00;1.08;;;11.50;99.90;;;;;;4866284;29;20051;-60
2022/09/16 01:21:57;;;;;;;7.03;1.65;;;11.50;99.90;;;;;;4862490;29;20115;-61
2022/09/16 01:24:48;;;;;;;3.83;1.23;;;11.50;99.90;;;;;;4866191;29;20567;-61
2022/09/16 01:27:38;;;;;;;4.60;1.30;;;11.40;99.90;;;;;;4866824;29;21140;-61
2022/09/16 01:30:20;;;;;;;5.60;1.30;;;11.40;99.90;;;;;;4868555;29;20056;-61
2022/09/16 01:32:58;;;;;;;6.93;1.70;;;11.40;99.90;;;;;;4870303;29;20052;-62
2022/09/16 01:35:49;;;;;;;5.82;1.30;;;11.40;99.90;;;;;;4868379;29;20053;-62
2022/09/16 01:38:25;;;;;;;7.05;1.30;;;11.40;99.90;;;;;;4865707;29;20112;-62
2022/09/16 01:41:11;;;;;;;6.35;1.30;;;11.30;99.90;;;;;;4867758;29;20053;-62
2022/09/16 01:43:56;;;;;;;6.43;1.35;;;11.40;99.90;;;;;;4863465;29;20471;-61
2022/09/16 01:46:33;;;;;;;5.53;1.40;;;11.40;99.90;;;;;;4868084;29;20061;-62
2022/09/16 01:49:32;;;;;;;7.50;1.40;;;11.30;99.90;;;;;;4867882;29;20053;-60
2022/09/16 01:52:33;;;;;;;7.53;1.48;;;11.40;99.90;;;;;;4867650;29;20061;-61
2022/09/16 01:55:06;;;;;;;8.27;1.30;;;11.40;99.90;;;;;;4868862;29;20120;-60
2022/09/16 01:58:02;;;;;;;8.13;1.65;;;11.40;99.90;;;;;;4867954;29;20060;-62
2022/09/16 02:00:30;;;;;;;5.93;1.17;;;11.50;99.90;;;;;;4879460;29;20052;-62
2022/09/16 02:03:10;;;;;;;7.93;1.20;;;11.50;99.90;;;;;;4886656;29;20052;-62
2022/09/16 02:05:44;;;;;;;8.45;1.50;;;11.50;99.90;;;;;;4881211;29;20531;-61
2022/09/16 02:08:14;;;;;;;10.27;1.58;;;11.50;99.90;;;;;;4879557;29;20055;-61
2022/09/16 02:10:54;;;;;;;7.43;1.23;;;11.50;99.90;;;;;;4877669;29;20575;-62
2022/09/16 02:13:27;;;;;;;8.73;1.10;;;11.50;99.90;;;;;;4876796;29;20131;-61
2022/09/16 02:15:56;;;;;;;5.90;1.50;;;11.50;99.90;;;;;;4878756;29;20139;-62
2022/09/16 02:18:26;;;;;;;4.65;1.10;;;11.40;99.90;;;;;;4877355;29;20049;-62
2022/09/16 02:20:56;;;;;;;7.60;1.83;;;11.40;99.90;;;;;;4879513;29;20488;-61
2022/09/16 02:23:44;;;;;;;3.97;1.02;;;11.40;99.90;;;;;;4878061;29;20084;-62
2022/09/16 02:26:12;;;;;;;4.65;1.40;;;11.40;99.90;;;;;;4877567;29;20237;-61
2022/09/16 02:28:41;;;;;;;4.50;1.30;;;11.30;99.90;;;;;;4876993;29;20471;-62
2022/09/16 02:31:08;;;;;;;4.63;1.10;;;11.30;99.90;;;;;;4862312;29;20081;-62
2022/09/16 02:33:52;;;;;;;4.13;1.05;;;11.30;99.90;;;;;;4867055;29;20063;-62
2022/09/16 02:36:23;;;;;;;4.85;1.10;;;11.30;99.90;;;;;;4865036;29;20850;-61
2022/09/16 02:39:06;;;;;;;7.00;1.10;;;11.20;99.90;;;;;;4868597;29;20044;-61
2022/09/16 02:41:31;;;;;;;11.93;2.00;;;11.20;99.90;;;;;;4870095;29;20056;-61
2022/09/16 02:43:58;;;;;;;10.02;1.70;;;11.20;99.90;;;;;;4853592;29;20576;-61
2022/09/16 02:46:29;;;;;;;7.88;1.15;;;11.20;99.90;;;;;;4878382;29;20105;-60
2022/09/16 02:49:09;;;;;;;9.02;1.40;;;11.20;99.90;;;;;;4869125;29;20403;-61
2022/09/16 02:52:03;;;;;;;11.35;1.48;;;11.20;99.90;;;;;;4867165;29;20148;-61
2022/09/16 02:54:54;;;;;;;9.25;1.42;;;11.20;99.90;;;;;;4867397;29;20152;-60
2022/09/16 02:57:21;;;;;;;9.20;1.67;;;11.20;99.90;;;;;;4872366;29;20500;-60
2022/09/16 02:59:47;;;;;;;5.53;1.30;;;11.30;99.90;;;;;;4884530;29;20044;-61
2022/09/16 03:02:13;;;;;;;8.93;1.42;;;11.30;99.90;;;;;;4880861;29;20488;-61
2022/09/16 03:04:39;;;;;;;10.13;1.63;;;11.30;99.90;;;;;;4869298;29;20056;-61
2022/09/16 03:07:07;;;;;;;6.60;1.20;;;11.30;99.90;;;;;;4868613;29;20067;-61
2022/09/16 03:09:37;;;;;;;6.07;1.25;;;11.30;99.90;;;;;;4868516;29;20057;-61
2022/09/16 03:12:45;;;;;;;8.45;1.40;;;11.30;99.90;;;;;;4865147;29;20060;-61
2022/09/16 03:15:25;;;;;;;8.20;1.42;;;11.30;99.90;;;;;;4857613;29;20044;-60
2022/09/16 03:18:08;;;;;;;9.00;1.50;;;11.30;99.90;;;;;;4870600;29;20111;-61
2022/09/16 03:21:05;;;;;;;7.18;1.60;;;11.30;99.90;;;;;;4870599;29;20095;-59
2022/09/16 03:24:02;;;;;;;7.78;1.42;;;11.20;99.90;;;;;;4871482;29;20876;-59
2022/09/16 03:26:37;;;;;;;7.45;1.42;;;11.20;99.90;;;;;;4877416;29;20060;-61
2022/09/16 03:29:20;;;;;;;7.25;1.20;;;11.20;99.90;;;;;;4869273;29;20522;-61
2022/09/16 03:32:04;;;;;;;9.70;1.85;;;11.10;99.90;;;;;;4866468;29;20049;-61
2022/09/16 03:34:42;;;;;;;8.95;1.42;;;11.10;99.90;;;;;;4869024;29;20048;-61
2022/09/16 03:37:13;;;;;;;6.13;1.50;;;11.00;99.90;;;;;;4869309;29;20101;-61
2022/09/16 03:39:40;;;;;;;9.68;1.70;;;11.00;99.90;;;;;;4870734;29;20056;-61
2022/09/16 03:42:10;;;;;;;7.82;1.65;;;11.00;99.90;;;;;;4873368;29;20048;-59
2022/09/16 03:44:39;;;;;;;8.95;2.45;;;11.00;99.90;;;;;;4867730;29;20120;-61
2022/09/16 03:47:06;;;;;;;5.47;1.42;;;11.00;99.90;;;;;;4870043;29;20068;-61
2022/09/16 03:49:33;;;;;;;9.93;1.40;;;11.00;99.90;;;;;;4867987;29;20055;-61
2022/09/16 03:52:00;;;;;;;10.38;1.58;;;10.90;99.90;;;;;;4886181;29;20507;-60
2022/09/16 03:54:26;;;;;;;12.68;1.77;;;10.90;99.90;;;;;;4874458;29;20786;-62
2022/09/16 03:56:52;;;;;;;7.78;1.58;;;10.90;99.90;;;;;;4878085;29;20066;-62
2022/09/16 03:59:18;;;;;;;9.25;1.52;;;10.90;99.90;;;;;;4883603;29;20052;-62
2022/09/16 04:01:44;;;;;;;9.73;1.35;;;10.90;99.90;;;;;;4886236;29;20108;-62
2022/09/16 04:04:11;;;;;;;10.20;1.33;;;10.90;99.90;;;;;;4882511;29;20558;-62
2022/09/16 04:06:37;;;;;;;7.40;1.33;;;10.90;99.90;;;;;;4878221;29;20606;-62
2022/09/16 04:09:05;;;;;;;11.50;1.77;;;10.80;99.90;;;;;;4882390;29;20056;-61
2022/09/16 04:11:31;;;;;;;8.95;1.60;;;10.80;99.90;;;;;;4883163;29;20496;-62
2022/09/16 04:13:58;;;;;;;13.55;2.15;;;10.80;99.90;;;;;;4882965;29;20064;-62
2022/09/16 04:16:24;;;;;;;10.43;2.25;;;10.80;99.90;;;;;;4883749;29;20072;-61
2022/09/16 04:18:50;;;;;;;8.15;1.55;;;10.70;99.90;;;;;;4882465;29;20103;-61
2022/09/16 04:21:16;;;;;;;14.05;1.90;;;10.70;99.90;;;;;;4883793;29;20041;-62
2022/09/16 04:23:42;;;;;;;11.25;1.83;;;10.60;99.90;;;;;;4895623;29;20056;-62
2022/09/16 04:26:10;;;;;;;8.32;1.35;;;10.60;99.90;;;;;;4882406;29;20057;-62
2022/09/16 04:28:36;;;;;;;13.32;2.90;;;10.60;99.90;;;;;;4874491;29;20052;-62
2022/09/16 04:31:08;;;;;;;8.63;1.75;;;10.50;99.90;;;;;;4872768;29;20084;-62
2022/09/16 04:33:35;;;;;;;;;;;10.50;99.90;;;;;;4872874;29;20063;-61
2022/09/16 04:36:16;;;;;;;9.15;1.60;;;10.40;99.90;;;;;;4867299;29;19971;-62
2022/09/16 04:38:43;;;;;;;7.35;1.60;;;10.40;99.90;;;;;;4889635;29;20056;-61
2022/09/16 04:41:16;;;;;;;13.32;2.13;;;10.40;99.90;;;;;;4872382;29;20090;-61
2022/09/16 04:43:42;;;;;;;16.63;1.83;;;10.40;99.90;;;;;;4871737;29;20060;-61
2022/09/16 04:46:09;;;;;;;10.30;1.52;;;10.50;99.90;;;;;;4870167;29;20060;-61
2022/09/16 04:48:35;;;;;;;16.27;1.88;;;10.50;99.90;;;;;;4870925;29;20134;-61
2022/09/16 04:51:09;;;;;;;12.38;2.03;;;10.50;99.90;;;;;;4871870;29;20061;-60
2022/09/16 04:53:37;;;;;;;10.60;1.63;;;10.60;99.90;;;;;;4872902;29;20127;-61
2022/09/16 04:56:30;;;;;;;8.50;1.67;;;10.60;99.90;;;;;;4873161;29;20468;-61
2022/09/16 04:58:58;;;;;;;6.80;1.83;;;10.60;99.90;;;;;;4870325;29;20424;-61
2022/09/16 05:01:28;;;;;;;9.60;2.10;;;10.50;99.90;;;;;;4869759;29;20045;-60
2022/09/16 05:03:56;;;;;;;7.88;1.75;;;10.50;99.90;;;;;;4870340;29;20590;-61
2022/09/16 05:06:25;;;;;;;7.55;1.75;;;10.50;99.90;;;;;;4870004;29;20068;-61
2022/09/16 05:08:52;;;;;;;9.80;1.92;;;10.50;99.90;;;;;;4872651;29;20105;-61
2022/09/16 05:11:21;;;;;;;8.00;1.70;;;10.40;99.90;;;;;;4885906;29;20049;-62
2022/09/16 05:13:47;;;;;;;7.43;1.75;;;10.40;99.90;;;;;;4866557;29;20120;-60
2022/09/16 05:16:18;;;;;;;9.43;1.75;;;10.40;99.90;;;;;;4874331;29;20089;-61
2022/09/16 05:18:46;;;;;;;13.95;1.90;;;10.40;99.90;;;;;;4867335;29;20366;-60
2022/09/16 05:21:14;;;;;;;10.52;1.40;;;10.40;99.90;;;;;;4867718;29;20512;-59
2022/09/16 05:23:40;;;;;;;7.63;1.50;;;10.30;99.90;;;;;;4872620;29;21552;-61
2022/09/16 05:26:13;;;;;;;8.82;1.65;;;10.30;99.90;;;;;;4868315;29;20385;-61
2022/09/16 05:28:39;;;;;;;15.48;2.13;;;10.30;99.90;;;;;;4866802;29;20825;-61
2022/09/16 05:31:15;;;;;;;12.13;1.85;;;10.30;99.90;;;;;;4883113;29;21029;-61
2022/09/16 05:33:42;;;;;;;6.32;1.52;;;10.30;99.90;;;;;;4878208;29;20154;-61
2022/09/16 05:36:13;;;;;;;11.38;1.85;;;10.30;99.90;;;;;;4864737;29;20063;-61
2022/09/16 05:38:40;;;;;;;10.55;2.35;;;10.40;99.90;;;;;;4868660;29;20512;-61
2022/09/16 05:41:06;;;;;;;8.27;1.70;;;10.40;99.90;;;;;;4865997;29;20052;-59
2022/09/16 05:43:33;;;;;;;9.10;1.65;;;10.40;99.90;;;;;;4862804;29;20640;-61
2022/09/16 05:46:00;;;;;;;12.60;1.75;;;10.40;99.90;;;;;;4863303;29;20653;-61
2022/09/16 05:48:26;;;;;;;11.27;1.77;;;10.40;99.90;;;;;;4866437;29;20040;-61
2022/09/16 05:50:53;;;;;;;9.15;1.80;;;10.40;99.90;;;;;;4869195;29;20049;-61
2022/09/16 05:53:20;;;;;;;14.48;2.00;;;10.40;99.90;;;;;;4868463;29;20149;-61
2022/09/16 05:56:04;;;;;;;10.82;1.75;;;10.40;99.90;;;;;;4867430;29;20089;-60
2022/09/16 05:58:32;;;;;;;14.05;1.98;;;10.40;99.90;;;;;;4872059;29;20049;-61
2022/09/16 06:01:04;;;;;;;9.65;2.28;;;10.40;99.90;;;;;;4861405;29;20053;-62
2022/09/16 06:03:29;;;;;;;13.80;2.20;;;10.50;99.90;;;;;;4876244;29;20057;-62
2022/09/16 06:06:00;;;;;;;12.75;2.00;;;10.50;99.90;;;;;;4881822;29;20059;-62
2022/09/16 06:08:28;;;;;;;12.05;2.13;;;10.50;99.90;;;;;;4876791;29;20079;-61
2022/09/16 06:10:54;;;;;;;14.93;1.80;;;10.60;99.90;;;;;;4878844;29;20123;-61
2022/09/16 06:13:20;;;;;;;13.95;2.13;;;10.60;99.90;;;;;;4870661;29;20049;-62
2022/09/16 06:15:53;;;;;;;7.90;2.00;;;10.60;99.90;;;;;;4876845;29;20048;-60
2022/09/16 06:18:19;;;;;;;9.57;1.73;;;10.60;99.90;;;;;;4881380;29;20147;-61
2022/09/16 06:20:46;;;;;;;12.15;2.35;;;10.60;99.90;;;;;;4881320;29;20052;-61
2022/09/16 06:23:12;;;;;;;6.25;1.55;;;10.60;99.90;;;;;;4878797;29;20050;-62
2022/09/16 06:25:37;;;;;;;9.05;1.58;;;10.60;99.90;;;;;;4881715;29;20060;-62
2022/09/16 06:28:03;;;;;;;15.02;2.15;;;10.60;99.90;;;;;;4882372;29;20051;-61
2022/09/16 06:30:29;;;;;;;12.95;1.80;;;10.70;99.90;;;;;;4883993;29;20551;-61
2022/09/16 06:32:55;;;;;;;17.13;1.95;;;10.70;99.90;;;;;;4880730;29;20049;-61
2022/09/16 06:35:21;;;;;;;16.10;1.92;;;10.70;99.90;;;;;;4875522;29;20052;-61
2022/09/16 06:37:47;;;;;;;7.85;1.63;;;10.70;99.90;;;;;;4870773;29;20052;-61
2022/09/16 06:40:13;;;;;;;11.30;1.90;;;10.80;99.90;;;;;;4866607;29;20128;-62
2022/09/16 06:42:39;;;;;;;10.82;1.70;;;10.80;99.90;;;;;;4870541;29;20053;-61
2022/09/16 06:45:05;;;;;;;11.05;1.90;;;10.90;99.90;;;;;;4868861;29;20105;-62
2022/09/16 06:47:34;;;;;;;15.32;2.22;;;11.00;99.90;;;;;;4871584;29;20056;-62
2022/09/16 06:50:00;;;;;;;12.00;1.73;;;11.00;99.90;;;;;;4864597;29;20052;-62
2022/09/16 06:52:27;;;;;;;15.57;2.13;;;11.10;99.90;;;;;;4878201;29;20044;-62
2022/09/16 06:54:53;;;;;;;12.73;2.00;;;11.20;99.90;;;;;;4873437;29;20059;-62
2022/09/16 06:57:21;;;;;;;10.68;2.35;;;11.30;99.90;;;;;;4878232;29;20189;-62
2022/09/16 06:59:48;;;;;;;10.80;1.98;;;11.50;99.90;;;;;;4870419;29;20057;-62
2022/09/16 07:02:14;;;;;;;5.20;1.50;;;11.60;99.90;;;;;;4877324;29;20931;-62
2022/09/16 07:04:40;;;;;;;13.32;2.15;;;11.80;99.90;;;;;;4876866;29;20048;-61
2022/09/16 07:07:06;;;;;;;18.48;2.17;;;11.80;99.90;;;;;;4871990;29;20531;-61
2022/09/16 07:09:32;;;;;;;15.68;2.53;;;11.90;99.90;;;;;;4878056;29;20615;-62
2022/09/16 07:11:58;;;;;;;13.98;1.70;;;11.90;99.90;;;;;;4873919;29;20051;-61
2022/09/16 07:14:26;;;;;;;14.52;1.80;;;11.90;99.90;;;;;;4866735;29;20049;-61
2022/09/16 07:16:51;;;;;;;11.80;2.10;;;12.00;99.90;;;;;;4877065;29;20041;-62
2022/09/16 07:19:17;;;;;;;11.68;1.80;;;12.00;99.90;;;;;;4873326;29;20513;-61
2022/09/16 07:21:43;;;;;;;10.90;2.00;;;11.90;99.90;;;;;;4875980;29;20211;-62
2022/09/16 07:24:11;;;;;;;11.93;1.77;;;11.90;99.90;;;;;;4877481;29;20055;-61
2022/09/16 07:26:39;;;;;;;10.25;1.80;;;12.00;99.90;;;;;;4880653;29;20492;-61
2022/09/16 07:29:08;;;;;;;16.08;2.47;;;12.00;99.90;;;;;;4870525;29;20060;-61
2022/09/16 07:31:36;;;;;;;11.20;2.25;;;12.10;99.90;;;;;;4869183;29;20045;-61
2022/09/16 07:34:03;;;;;;;10.63;1.83;;;12.10;99.90;;;;;;4884495;29;20064;-61
2022/09/16 07:36:33;;;;;;;13.73;2.10;;;12.20;99.90;;;;;;4866432;29;20080;-60
2022/09/16 07:38:59;;;;;;;16.38;2.20;;;12.30;99.90;;;;;;4872410;29;20480;-61
2022/09/16 07:41:28;;;;;;;7.93;1.75;;;12.40;99.90;;;;;;4869544;29;20083;-61
2022/09/16 07:43:57;;;;;;;14.65;2.00;;;12.60;99.90;;;;;;4871108;29;20060;-61
2022/09/16 07:46:25;;;;;;;14.63;2.30;;;12.80;99.90;;;;;;4869635;29;20081;-61
2022/09/16 07:48:51;;;;;;;18.00;2.30;;;13.00;99.90;;;;;;4873876;29;20520;-61
2022/09/16 07:51:20;;;;;;;18.13;2.78;;;13.20;99.90;;;;;;4870904;29;21247;-61
2022/09/16 07:53:47;;;;;;;18.83;2.42;;;13.30;99.90;;;;;;4874343;29;21115;-61
2022/09/16 07:56:15;;;;;;;18.80;2.72;;;13.40;99.90;;;;;;4871987;29;20716;-62
2022/09/16 07:58:43;;;;;;;15.50;2.03;;;13.50;99.90;;;;;;4868068;29;20101;-62
2022/09/16 08:01:09;;;;;;;18.55;2.25;;;13.50;99.90;;;;;;4873186;29;20060;-61
2022/09/16 08:03:37;;;;;;;17.77;2.35;;;13.50;99.90;;;;;;4890299;29;20488;-61
2022/09/16 08:06:06;;;;;;;15.20;2.45;;;13.50;99.90;;;;;;4883009;29;20048;-62
2022/09/16 08:08:33;;;;;;;11.98;2.08;;;13.60;99.90;;;;;;4878566;29;20063;-62
2022/09/16 08:11:00;;;;;;;16.42;2.42;;;13.60;99.90;;;;;;4873910;29;20054;-62
2022/09/16 08:13:28;;;;;;;19.52;3.50;;;13.70;99.90;;;;;;4880330;29;20152;-62
2022/09/16 08:15:54;;;;;;;12.95;2.38;;;13.80;99.90;;;;;;4880581;29;20067;-61
2022/09/16 08:18:20;;;;;;;19.27;2.03;;;13.90;99.90;;;;;;4876347;29;20052;-62
2022/09/16 08:20:46;;;;;;;16.08;2.53;;;14.10;99.90;;;;;;4895960;29;20044;-62
2022/09/16 08:23:13;;;;;;;17.17;2.53;;;14.20;99.90;;;;;;4878018;29;20049;-61
2022/09/16 08:25:41;;;;;;;7.97;1.98;;;14.30;99.90;;;;;;4876799;29;20056;-62
2022/09/16 08:28:12;;;;;;;8.73;1.73;;;14.40;99.90;;;;;;4881217;29;20055;-62
2022/09/16 08:30:38;;;;;;;12.43;1.88;;;14.50;99.90;;;;;;4879331;29;20060;-62
2022/09/16 08:33:04;;;;;;;13.95;2.00;;;14.60;99.90;;;;;;4869868;29;20048;-60
2022/09/16 08:35:30;;;;;;;13.90;2.45;;;14.70;99.90;;;;;;4870862;29;20053;-61
2022/09/16 08:37:56;;;;;;;13.32;1.92;;;14.80;99.90;;;;;;4868686;29;20580;-62
2022/09/16 08:40:23;;;;;;;10.07;1.65;;;14.90;99.90;;;;;;4876421;29;20124;-62
2022/09/16 08:43:01;;;;;;;12.98;2.22;;;15.00;99.30;;;;;;4868115;29;20179;-62
2022/09/16 08:45:37;;;;;;;10.77;2.25;;;15.10;98.60;;;;;;4866462;29;20616;-61
2022/09/16 08:48:27;;;;;;;11.50;2.40;;;15.20;97.50;;;;;;4869568;29;20104;-61
2022/09/16 08:50:54;;;;;;;11.27;1.83;;;15.30;97.40;;;;;;4870254;29;20119;-62
2022/09/16 08:53:25;;;;;;;12.77;2.13;;;15.40;97.10;;;;;;4884284;29;20051;-62
2022/09/16 08:55:52;;;;;;;14.27;1.90;;;15.50;96.50;;;;;;4871499;29;20049;-62
2022/09/16 08:58:29;;;;;;;12.95;2.13;;;15.70;96.70;;;;;;4868998;29;20056;-62
2022/09/16 09:01:03;;;;;;;11.95;2.88;;;15.80;96.90;;;;;;4868325;29;20223;-62
2022/09/16 09:03:41;;;;;;;15.38;2.67;;;15.80;96.50;;;;;;4867616;29;20056;-62
2022/09/16 09:06:34;;;;;;;16.08;3.22;;;15.70;96.40;;;;;;4868714;29;20057;-61
2022/09/16 09:09:05;;;;;;;;;;;15.50;96.50;;;;;;4871509;29;20127;-62
2022/09/16 09:11:46;;;;;;;18.77;2.38;;;15.40;97.00;;;;;;4869369;29;19934;-61
2022/09/16 09:14:22;;;;;;;13.65;2.08;;;15.50;97.20;;;;;;4869363;29;20435;-62
2022/09/16 09:17:27;;;;;;;18.08;2.40;;;15.60;96.80;;;;;;4871843;29;20098;-62
2022/09/16 09:20:16;;;;;;;10.65;2.10;;;15.70;96.40;;;;;;4867683;29;20048;-62
2022/09/16 09:22:52;;;;;;;17.55;2.13;;;15.80;96.10;;;;;;4867800;29;20075;-62
2022/09/16 09:25:47;;;;;;;14.25;2.10;;;16.00;95.80;;;;;;4871407;29;20080;-62
2022/09/16 09:28:22;;;;;;;13.15;2.08;;;16.10;96.00;;;;;;4867999;29;20092;-62
2022/09/16 09:31:09;;;;;;;8.75;1.50;;;16.20;95.00;;;;;;4878114;29;20177;-62
2022/09/16 09:33:52;;;;;;;11.80;1.60;;;16.30;93.10;;;;;;4868167;29;20476;-62
2022/09/16 09:36:59;;;;;;;11.15;2.22;;;16.40;92.70;;;;;;4868572;29;20040;-62
2022/09/16 09:39:43;;;;;;;15.30;2.20;;;16.50;93.20;;;;;;4869659;29;20071;-62
2022/09/16 09:42:18;;;;;;;14.30;2.05;;;16.60;93.10;;;;;;4873587;29;20077;-62
2022/09/16 09:44:56;;;;;;;14.30;2.38;;;16.70;92.70;;;;;;4874170;29;21317;-62
2022/09/16 09:47:46;;;;;;;8.88;1.70;;;16.70;92.20;;;;;;4870648;29;20492;-62
2022/09/16 09:50:40;;;;;;;11.32;1.55;;;16.60;92.80;;;;;;4860679;29;20053;-62
2022/09/16 09:53:12;;;;;;;13.23;2.70;;;16.50;93.60;;;;;;4883863;29;20803;-62
2022/09/16 09:55:40;;;;;;;12.43;2.10;;;16.30;94.10;;;;;;4868006;29;20060;-62
2022/09/16 09:58:18;;;;;;;9.65;1.52;;;16.30;94.50;;;;;;4867102;29;20512;-62
2022/09/16 10:00:44;;;;;;;11.35;1.80;;;16.50;95.00;;;;;;4876268;29;20495;-62
2022/09/16 10:03:13;;;;;;;15.52;2.45;;;16.40;95.40;;;;;;4870341;29;20503;-62
2022/09/16 10:05:39;;;;;;;13.70;1.65;;;16.30;95.40;;;;;;4868749;29;20060;-61
2022/09/16 10:08:27;;;;;;;12.55;1.73;;;16.20;95.60;;;;;;4867026;29;20091;-61
2022/09/16 10:10:56;;;;;;;12.20;2.10;;;16.30;95.60;;;;;;4870742;29;20128;-61
2022/09/16 10:13:24;;;;;;;14.95;2.00;;;16.40;95.40;;;;;;4866937;29;20131;-61
2022/09/16 10:15:54;;;;;;;20.38;3.10;;;16.60;94.70;;;;;;4868172;29;20040;-62
2022/09/16 10:18:30;;;;;;;17.58;2.30;;;16.80;94.60;;;;;;4871231;29;20126;-62
2022/09/16 10:21:06;;;;;;;12.82;2.53;;;16.90;94.00;;;;;;4870188;29;20043;-62
2022/09/16 10:23:33;;;;;;;11.73;2.40;;;17.00;93.70;;;;;;4868040;29;20629;-62
2022/09/16 10:26:22;;;;;;;10.35;1.88;;;17.00;93.90;;;;;;4883784;29;20054;-61
2022/09/16 10:29:13;;;;;;;18.73;2.30;;;17.00;93.90;;;;;;4862516;29;20056;-62
2022/09/16 10:31:41;;;;;;;8.43;1.73;;;16.80;93.30;;;;;;4870171;29;20127;-62
2022/09/16 10:34:20;;;;;;;11.43;1.52;;;16.50;93.00;;;;;;4886361;29;20100;-61
2022/09/16 10:36:57;;;;;;;13.40;2.15;;;16.40;93.20;;;;;;4871119;29;20045;-62
2022/09/16 10:39:25;;;;;;;12.00;2.28;;;16.30;93.90;;;;;;4868622;29;20052;-62
2022/09/16 10:41:51;;;;;;;15.45;2.42;;;16.50;94.60;;;;;;4869067;29;20044;-62
2022/09/16 10:44:28;;;;;;;17.05;2.20;;;16.70;94.70;;;;;;4868902;29;20460;-62
2022/09/16 10:47:08;;;;;;;9.73;1.70;;;17.00;94.60;;;;;;4881880;29;20049;-62
2022/09/16 10:49:38;;;;;;;11.82;1.67;;;17.30;93.20;;;;;;4870156;29;20054;-62
2022/09/16 10:52:17;;;;;;;9.65;1.52;;;17.50;92.00;;;;;;4857262;29;20061;-61
2022/09/16 10:54:44;;;;;;;13.20;1.83;;;17.70;91.30;;;;;;4870993;29;20052;-61
2022/09/16 10:57:30;;;;;;;7.50;1.60;;;17.80;90.70;;;;;;4870474;29;20055;-62
2022/09/16 11:00:14;;;;;;;9.13;1.85;;;18.00;90.20;;;;;;4869003;29;20080;-60
2022/09/16 11:02:49;;;;;;;13.73;1.90;;;18.10;90.50;;;;;;4878854;29;20045;-62
2022/09/16 11:05:43;;;;;;;13.90;2.05;;;18.10;90.20;;;;;;4874498;29;20175;-61
2022/09/16 11:08:33;;;;;;;18.13;2.85;;;18.10;90.00;;;;;;4871091;29;20068;-62
2022/09/16 11:11:12;;;;;;;12.98;2.05;;;18.00;90.60;;;;;;4871029;29;21385;-62
2022/09/16 11:14:05;;;;;;;12.88;1.80;;;17.80;90.00;;;;;;4853161;29;20169;-63
2022/09/16 11:17:10;;;;;;;13.32;2.65;;;17.70;87.50;;;;;;4867703;29;20108;-62
2022/09/16 11:19:50;;;;;;;20.23;2.70;;;17.60;87.80;;;;;;4855572;29;20052;-62
2022/09/16 11:22:45;;;;;;;12.43;2.10;;;17.70;88.30;;;;;;4869895;29;20045;-62
2022/09/16 11:25:20;;;;;;;11.48;2.13;;;17.70;87.10;;;;;;4868243;29;20099;-62
2022/09/16 11:28:28;;;;;;;18.50;2.20;;;17.80;85.30;;;;;;4869201;29;20052;-62
2022/09/16 11:31:20;;;;;;;14.82;2.75;;;17.90;85.30;;;;;;4870339;29;20045;-62
2022/09/16 11:34:11;;;;;;;14.48;2.60;;;18.10;85.00;;;;;;4882706;29;20045;-61
2022/09/16 11:37:12;;;;;;;15.02;2.88;;;18.30;84.70;;;;;;4871633;29;20048;-62
2022/09/16 11:39:56;;;;;;;12.18;2.30;;;18.60;83.40;;;;;;4866648;29;20076;-61
2022/09/16 11:42:41;;;;;;;20.65;2.67;;;18.60;81.50;;;;;;4868351;29;20045;-62
2022/09/16 11:45:40;;;;;;;12.38;2.15;;;18.70;82.30;;;;;;4866233;29;20056;-62
2022/09/16 11:48:08;;;;;;;18.00;2.80;;;18.60;81.40;;;;;;4865510;29;20052;-60
2022/09/16 11:50:48;;;;;;;13.73;2.65;;;18.60;81.00;;;;;;4869783;29;20053;-62
2022/09/16 11:53:41;;;;;;;18.80;3.05;;;18.60;80.90;;;;;;4869236;29;20045;-61
2022/09/16 11:56:10;;;;;;;10.75;2.05;;;18.60;81.00;;;;;;4881679;29;20136;-62
2022/09/16 11:58:50;;;;;;;10.73;2.13;;;18.60;81.20;;;;;;4878482;29;20056;-62
2022/09/16 12:01:38;;;;;;;12.57;2.38;;;18.70;80.30;;;;;;4869061;29;20782;-62
2022/09/16 12:04:30;;;;;;;15.20;2.72;;;18.60;80.30;;;;;;4883245;29;20085;-62
2022/09/16 12:07:16;;;;;;;18.58;3.35;;;18.50;79.00;;;;;;4878778;29;20435;-62
2022/09/16 12:10:18;;;;;;;14.82;3.10;;;18.40;79.10;;;;;;4878798;29;21950;-62
2022/09/16 12:13:00;;;;;;;22.35;3.03;;;18.30;79.30;;;;;;4876933;29;20057;-61
2022/09/16 12:15:58;;;;;;;12.38;2.78;;;18.20;78.60;;;;;;4879924;29;20040;-62
2022/09/16 12:18:33;;;;;;;16.52;2.70;;;18.10;77.10;;;;;;4867247;29;20045;-62
2022/09/16 12:21:26;;;;;;;15.18;2.65;;;17.90;77.20;;;;;;4892255;29;20077;-62
2022/09/16 12:24:02;;;;;;;21.65;3.85;;;17.80;77.20;;;;;;4864616;29;20412;-62
2022/09/16 12:26:35;;;;;;;21.92;3.38;;;17.80;79.30;;;;;;4883529;29;20084;-63
2022/09/16 12:29:37;;;;;;;29.23;3.58;;;17.80;80.20;;;;;;4881419;29;20051;-62
2022/09/16 12:32:11;;;;;;;21.13;3.35;;;18.00;80.10;;;;;;4873599;29;20485;-62
2022/09/16 12:34:44;;;;;;;15.10;3.17;;;18.10;79.90;;;;;;4873961;29;20502;-62
2022/09/16 12:37:13;;;;;;;19.75;3.30;;;18.00;80.30;;;;;;4872431;29;20058;-62
2022/09/16 12:39:39;;;;;;;15.40;2.50;;;18.00;81.70;;;;;;4872488;29;20063;-62
2022/09/16 12:42:19;;;;;;;16.25;2.28;;;17.90;82.10;;;;;;4886546;29;20040;-62
2022/09/16 12:44:57;;;;;;;14.82;2.22;;;17.60;82.90;;;;;;4870605;29;20048;-62
2022/09/16 12:47:42;;;;;;;13.98;2.25;;;17.40;84.20;;;;;;4873245;29;20041;-62
2022/09/16 12:50:11;;;;;;;14.27;2.30;;;17.30;85.00;;;;;;4873085;29;20491;-61
2022/09/16 12:53:06;;;;;;;11.80;1.50;;;17.20;85.20;;;;;;4858291;29;20075;-61
2022/09/16 12:55:47;;;;;;;13.85;1.38;;;17.20;84.80;;;;;;4870887;29;20479;-61
2022/09/16 12:58:34;;;;;;;8.45;1.52;;;17.10;83.50;;;;;;4872566;29;20049;-62
2022/09/16 13:01:18;;;;;;;11.57;1.75;;;17.10;83.90;;;;;;4875329;29;20565;-62
2022/09/16 13:03:52;;;;;;;8.68;0.95;;;17.10;83.70;;;;;;4872707;29;20085;-62
2022/09/16 13:06:38;;;;;;;9.27;1.40;;;17.00;82.30;;;;;;4873846;29;20120;-62
2022/09/16 13:09:22;;;;;;;8.60;1.65;;;16.90;82.40;;;;;;4871754;29;20056;-62
2022/09/16 13:11:58;;;;;;;9.18;1.77;;;16.80;85.20;;;;;;4874635;29;20594;-62
2022/09/16 13:14:48;;;;;;;9.95;1.95;;;16.60;87.90;;;;;;4872653;29;20611;-62
2022/09/16 13:17:14;;;;;;;4.78;1.25;;;16.30;90.30;;;;;;4872914;29;20072;-62
2022/09/16 13:19:51;;;;;;;6.72;1.48;;;15.90;91.00;;;;;;4885699;29;20144;-62